Time;durP1;ratioP1;P1;durP2;ratioP2;P2;SDS_P1;SDS_P2;PMS_P1;PMS_P2;Temp;Humidity;BMP_temperature;BMP_pressure;BME280_temperature;BME280_humidity;BME280_pressure;Samples;Min_cycle;Max_cycle;Signal;HPM_P1;HPM_P2
2024/02/22 00:00:08;;;;;;;3.40;1.70;;;11.10;99.90;;;-141.84;45.76;18777.47;5092794;28;20269;-60
2024/02/22 00:02:37;;;;;;;3.43;1.33;;;11.00;99.90;;;-141.84;45.87;18763.25;5092640;28;20247;-60
2024/02/22 00:05:06;;;;;;;1.47;1.33;;;11.00;99.90;;;-141.84;46.12;18769.34;5092612;28;20698;-60
2024/02/22 00:07:34;;;;;;;3.03;1.37;;;11.00;99.90;;;-141.84;46.18;18773.41;5092012;28;20577;-60
2024/02/22 00:10:03;;;;;;;3.40;1.40;;;11.00;99.90;;;-141.84;46.25;18769.34;5093182;28;20196;-60
2024/02/22 00:12:37;;;;;;;2.60;1.30;;;11.00;99.90;;;-141.84;46.22;18771.38;5093017;28;20273;-60
2024/02/22 00:15:10;;;;;;;1.50;1.40;;;10.90;99.90;;;-141.84;46.26;18779.50;5084943;28;20227;-60
2024/02/22 00:17:39;;;;;;;2.67;1.30;;;10.90;99.90;;;-141.84;46.10;18769.34;5092663;28;20322;-60
2024/02/22 00:20:08;;;;;;;1.80;1.30;;;11.00;99.90;;;-141.84;46.36;18785.59;5092188;28;20212;-60
2024/02/22 00:22:37;;;;;;;2.43;1.30;;;10.90;99.90;;;-141.84;46.07;18803.88;5093146;28;20350;-59
2024/02/22 00:25:07;;;;;;;2.27;1.30;;;11.00;99.90;;;-141.84;46.33;18781.53;5092071;28;20715;-61
2024/02/22 00:27:38;;;;;;;1.43;1.30;;;10.90;99.90;;;-141.84;45.97;18785.59;5092844;28;20310;-59
2024/02/22 00:30:12;;;;;;;2.97;1.50;;;11.00;99.90;;;-141.84;46.57;18781.53;5088323;28;20316;-60
2024/02/22 00:32:41;;;;;;;2.97;1.23;;;11.00;99.90;;;-141.84;46.53;18783.56;5091968;28;20224;-60
2024/02/22 00:35:10;;;;;;;2.07;1.20;;;11.00;99.90;;;-141.84;46.33;18824.22;5092136;28;20215;-60
2024/02/22 00:37:38;;;;;;;2.60;1.50;;;11.10;99.90;;;-141.84;46.58;18793.72;5092237;28;20239;-60
2024/02/22 00:40:09;;;;;;;1.93;1.30;;;11.00;99.90;;;-141.84;47.14;18755.13;5070170;28;20645;-60
2024/02/22 00:42:37;;;;;;;2.23;1.60;;;11.00;99.90;;;-141.84;46.94;18757.16;5092937;28;20185;-63
2024/02/22 00:45:08;;;;;;;3.30;1.10;;;10.90;99.90;;;-141.84;47.44;18777.47;5092736;28;20216;-60
2024/02/22 00:47:37;;;;;;;1.30;1.20;;;11.00;99.90;;;-141.84;47.60;18775.44;5091589;28;20311;-61
2024/02/22 00:50:07;;;;;;;1.73;1.20;;;11.00;99.90;;;-141.84;48.33;18718.56;5092386;28;20239;-59
2024/02/22 00:52:36;;;;;;;1.43;1.10;;;10.80;99.90;;;-141.84;48.60;18767.31;5092051;28;20228;-60
2024/02/22 00:55:05;;;;;;;2.20;1.13;;;10.80;99.90;;;-141.84;49.37;18759.19;5083505;28;20208;-59
2024/02/22 00:57:34;;;;;;;2.00;1.33;;;10.80;99.90;;;-141.84;50.17;18706.38;5091997;28;20195;-60
2024/02/22 01:00:02;;;;;;;2.10;1.30;;;10.80;99.90;;;-141.84;50.29;18738.88;5091549;28;20272;-60
2024/02/22 01:02:32;;;;;;;1.50;1.10;;;10.80;99.90;;;-141.84;51.31;18700.25;5091636;28;20244;-60
2024/02/22 01:05:00;;;;;;;2.57;1.53;;;10.70;99.90;;;-141.84;51.51;18692.13;5091963;28;20215;-59
2024/02/22 01:07:30;;;;;;;2.17;1.20;;;10.80;99.90;;;-141.84;51.93;18690.09;5091789;28;20235;-64
2024/02/22 01:09:58;;;;;;;2.47;1.50;;;10.70;99.90;;;-141.84;52.63;18671.81;5092117;28;20284;-59
2024/02/22 01:12:26;;;;;;;1.47;1.00;;;10.60;99.90;;;-141.84;52.92;18684.00;5092240;28;20235;-60
2024/02/22 01:14:55;;;;;;;1.80;1.33;;;10.50;99.90;;;-141.84;53.25;18675.88;5091485;28;20911;-61
2024/02/22 01:17:23;;;;;;;1.67;1.00;;;10.50;99.90;;;-141.84;53.48;18677.91;5092840;28;20259;-60
2024/02/22 01:19:52;;;;;;;2.33;1.20;;;10.50;99.90;;;-141.84;53.44;18667.75;5091377;28;20307;-60
2024/02/22 01:22:21;;;;;;;2.00;1.17;;;10.50;99.90;;;-141.84;53.98;18645.41;5091919;28;20596;-60
2024/02/22 01:24:49;;;;;;;1.40;1.20;;;10.40;99.90;;;-141.84;54.38;18667.75;5092110;28;20701;-60
2024/02/22 01:27:17;;;;;;;1.43;1.27;;;10.40;99.90;;;-141.84;54.54;18677.91;5091944;28;20294;-60
2024/02/22 01:29:45;;;;;;;1.37;1.10;;;10.40;99.90;;;-141.84;54.49;18663.69;5086277;28;20251;-61
2024/02/22 01:32:13;;;;;;;2.43;1.20;;;10.40;99.90;;;-141.84;54.79;18659.63;5091326;28;20252;-60
2024/02/22 01:34:42;;;;;;;1.77;1.10;;;10.40;99.90;;;-141.84;55.68;18653.53;5091619;28;20285;-60
2024/02/22 01:37:12;;;;;;;1.50;1.00;;;10.30;99.90;;;-141.84;56.96;18651.50;5083496;28;20239;-59
2024/02/22 01:39:42;;;;;;;1.30;1.13;;;10.30;99.90;;;-141.84;57.79;18655.56;5092547;28;20223;-60
2024/02/22 01:42:10;;;;;;;1.43;1.00;;;10.30;99.90;;;-141.84;58.56;18608.84;5093007;28;20263;-60
2024/02/22 01:44:38;;;;;;;1.30;1.10;;;10.20;99.90;;;-141.84;59.65;18633.22;5090902;28;20655;-60
2024/02/22 01:47:07;;;;;;;1.87;1.00;;;10.20;99.90;;;-141.84;59.70;18621.03;5091142;28;20600;-61
2024/02/22 01:49:36;;;;;;;1.90;1.07;;;10.10;99.90;;;-141.84;59.55;18623.06;5090912;28;20220;-60
2024/02/22 01:52:07;;;;;;;1.20;1.10;;;10.10;99.90;;;-141.84;60.76;18582.44;5091022;28;20200;-60
2024/02/22 01:54:37;;;;;;;2.07;1.27;;;10.10;99.90;;;-141.84;63.21;18594.63;5091613;28;20290;-60
2024/02/22 01:57:07;;;;;;;1.97;1.10;;;10.10;99.90;;;-141.84;64.08;18600.72;5082372;28;20235;-61
2024/02/22 01:59:35;;;;;;;2.93;1.40;;;9.90;99.90;;;-141.84;66.78;18635.25;5090763;28;20243;-60
2024/02/22 02:02:04;;;;;;;2.83;1.60;;;9.90;99.90;;;-141.84;68.92;18692.13;5090657;28;20569;-60
2024/02/22 02:04:33;;;;;;;2.07;1.37;;;9.70;99.90;;;-141.84;71.10;18700.25;5090424;28;20863;-60
2024/02/22 02:07:01;;;;;;;2.40;1.40;;;9.60;99.90;;;-141.84;73.16;18785.59;5087465;28;20234;-60
2024/02/22 02:09:29;;;;;;;1.93;1.27;;;9.40;99.90;;;-141.84;73.99;18840.47;5091584;28;20204;-61
2024/02/22 02:11:59;;;;;;;2.20;1.20;;;9.30;99.90;;;-141.84;77.00;19159.47;5090358;28;20285;-62
2024/02/22 02:14:27;;;;;;;2.23;1.20;;;9.20;99.90;;;-141.84;76.86;19139.16;5039214;28;20224;-60
2024/02/22 02:16:56;;;;;;;2.13;1.60;;;9.20;99.90;;;-141.84;76.13;19025.38;5090622;28;20254;-61
2024/02/22 02:19:26;;;;;;;2.20;1.47;;;9.10;99.90;;;-141.84;78.50;19722.38;5091205;28;20224;-60
2024/02/22 02:22:08;;;;;;;1.63;1.20;;;9.10;99.90;;;-141.84;80.88;21718.63;5090895;28;20191;-60
2024/02/22 02:24:46;;;;;;;1.50;1.30;;;8.90;99.90;;;-141.84;78.93;19931.72;5083474;28;20180;-61
2024/02/22 02:27:16;;;;;;;2.67;1.30;;;8.90;99.90;;;-141.84;79.24;20019.13;5089357;28;20751;-60
2024/02/22 02:29:45;;;;;;;1.50;1.40;;;9.00;99.90;;;-141.84;81.27;22586.97;5082723;28;20623;-61
2024/02/22 02:32:13;;;;;;;2.70;1.30;;;8.90;99.90;;;-141.84;78.76;19937.81;5090626;28;20220;-60
2024/02/22 02:34:41;;;;;;;1.50;1.20;;;8.90;99.90;;;-141.84;80.64;21421.75;5090084;28;20220;-61
2024/02/22 02:37:10;;;;;;;1.53;1.40;;;8.90;99.90;;;-141.84;82.67;25612.41;5090228;28;20260;-60
2024/02/22 02:39:38;;;;;;;1.37;1.27;;;8.90;99.90;;;-141.84;80.23;20966.34;5090540;28;20249;-61
2024/02/22 02:42:07;;;;;;;2.60;1.47;;;8.90;99.90;;;-141.84;80.50;21364.84;5091269;28;20327;-61
2024/02/22 02:44:37;;;;;;;2.80;1.60;;;9.00;99.90;;;-141.84;81.53;22723.22;5090127;28;20220;-61
2024/02/22 02:47:07;;;;;;;1.83;1.50;;;8.90;99.90;;;-141.84;83.54;30604.31;5090180;28;20212;-60
2024/02/22 02:49:35;;;;;;;1.70;1.27;;;8.80;99.90;;;-141.84;83.68;31278.94;5090760;28;20258;-60
2024/02/22 02:52:04;;;;;;;2.43;1.50;;;8.90;99.90;;;-141.84;87.14;49943.41;5090415;28;20202;-61
2024/02/22 02:54:32;;;;;;;2.97;1.30;;;8.80;99.90;;;-141.84;87.51;55189.84;5090493;28;20718;-61
2024/02/22 02:57:00;;;;;;;2.27;1.40;;;8.70;99.90;;;-141.84;88.59;60443.22;5090194;28;20633;-61
2024/02/22 02:59:29;;;;;;;1.87;1.57;;;8.70;99.90;;;-141.84;89.73;64124.72;5089879;28;20283;-61
2024/02/22 03:01:58;;;;;;;2.17;1.60;;;8.60;99.90;;;-141.84;90.49;68863.09;5091041;28;20220;-61
2024/02/22 03:04:27;;;;;;;2.07;1.40;;;8.60;99.90;;;-141.84;93.25;78620.75;5082185;28;20220;-61
2024/02/22 03:06:55;;;;;;;2.17;1.77;;;8.50;99.90;;;-141.84;93.28;80733.66;5089841;28;20766;-60
2024/02/22 03:09:23;;;;;;;3.10;1.80;;;8.50;99.90;;;-141.84;92.87;79148.88;5090546;28;20220;-60
2024/02/22 03:11:51;;;;;;;1.50;1.40;;;8.50;99.90;;;-141.84;93.42;79412.97;5090274;28;20224;-61
2024/02/22 03:14:20;;;;;;;1.60;1.50;;;8.50;99.90;;;-141.84;93.51;81526.28;5091043;28;20269;-61
2024/02/22 03:16:48;;;;;;;1.97;1.60;;;8.50;99.90;;;-141.84;96.65;89196.38;5089930;28;20249;-62
2024/02/22 03:19:18;;;;;;;1.70;1.53;;;8.40;99.90;;;-141.84;94.44;84962.78;5090301;28;20289;-62
2024/02/22 03:21:47;;;;;;;1.67;1.40;;;8.50;99.90;;;-141.84;95.73;87608.25;5090607;28;20196;-61
2024/02/22 03:24:15;;;;;;;3.03;1.63;;;8.50;99.90;;;-141.84;96.33;90520.28;5090184;28;20287;-64
2024/02/22 03:26:46;;;;;;;1.47;1.37;;;8.40;99.90;;;-141.84;96.21;89725.88;5090386;28;20704;-61
2024/02/22 03:29:14;;;;;;;3.37;1.80;;;8.40;99.90;;;-141.84;96.26;89725.88;5090162;28;20251;-62
2024/02/22 03:31:43;;;;;;;2.20;1.53;;;8.40;99.90;;;-141.84;96.30;89990.66;5089904;28;20231;-62
2024/02/22 03:34:11;;;;;;;1.57;1.47;;;8.40;99.90;;;-141.84;96.46;91579.72;5090671;28;20236;-62
2024/02/22 03:36:41;;;;;;;3.23;1.50;;;8.40;99.90;;;-141.84;96.16;89725.88;5090348;28;20203;-61
2024/02/22 03:39:11;;;;;;;1.63;1.53;;;8.40;99.90;;;-141.84;98.84;96350.63;5091982;28;20238;-63
2024/02/22 03:41:40;;;;;;;2.50;1.80;;;8.40;99.90;;;-141.84;99.25;97146.31;5093574;28;20220;-61
2024/02/22 03:44:08;;;;;;;2.33;1.83;;;8.40;99.90;;;-141.84;100.00;102189.38;5093577;28;20310;-62
2024/02/22 03:46:37;;;;;;;1.40;1.30;;;8.30;99.90;;;-141.84;100.00;101658.25;5093126;28;20314;-61
2024/02/22 03:49:06;;;;;;;2.20;1.60;;;8.30;99.90;;;-141.84;98.98;98472.84;5093397;28;20203;-60
2024/02/22 03:51:34;;;;;;;2.50;1.50;;;8.30;99.90;;;-141.84;98.87;95820.25;5093841;28;20646;-61
2024/02/22 03:54:04;;;;;;;1.63;1.50;;;8.40;99.90;;;-141.84;100.00;102189.38;5093517;28;20683;-61
2024/02/22 03:56:33;;;;;;;2.00;1.50;;;8.30;99.90;;;-141.84;100.00;102189.38;5093405;28;20220;-61
2024/02/22 03:59:01;;;;;;;1.40;1.30;;;8.30;99.90;;;-141.84;100.00;103517.56;5093056;28;20290;-61
2024/02/22 04:01:31;;;;;;;1.83;1.60;;;8.30;99.90;;;-141.84;100.00;105111.94;5093169;28;20220;-61
2024/02/22 04:03:59;;;;;;;2.13;1.40;;;8.30;99.90;;;-141.84;100.00;103517.56;5093189;28;20468;-60
2024/02/22 04:06:27;;;;;;;2.33;1.73;;;8.30;99.90;;;-141.84;100.00;101923.81;5082981;28;20205;-60
2024/02/22 04:08:57;;;;;;;2.37;1.50;;;8.30;99.90;;;-141.84;99.83;99268.97;5091601;28;20346;-60
2024/02/22 04:11:27;;;;;;;1.90;1.40;;;8.30;99.90;;;-141.84;100.00;102720.59;5093097;28;20618;-61
2024/02/22 04:13:55;;;;;;;3.13;1.40;;;8.40;99.90;;;-141.84;100.00;103517.56;5093120;28;20216;-62
2024/02/22 04:16:23;;;;;;;1.60;1.40;;;8.30;99.90;;;-141.84;100.00;103517.56;5093067;28;20231;-60
2024/02/22 04:18:52;;;;;;;1.47;1.37;;;8.40;99.90;;;-141.84;100.00;105111.94;5093124;28;20206;-62
2024/02/22 04:21:20;;;;;;;1.23;1.13;;;8.40;99.90;;;-141.84;100.00;106175.19;5093417;28;20219;-61
2024/02/22 04:23:48;;;;;;;1.93;1.40;;;8.50;99.90;;;-141.84;100.00;105643.53;5092700;28;20248;-61
2024/02/22 04:26:16;;;;;;;1.90;1.50;;;8.40;99.90;;;-141.84;100.00;109366.66;5092576;28;20223;-61
2024/02/22 04:28:46;;;;;;;1.40;1.30;;;8.40;99.90;;;-141.84;100.00;108834.56;5092493;28;20220;-61
2024/02/22 04:31:15;;;;;;;1.57;1.40;;;8.40;99.90;;;-141.84;100.00;108036.56;5093398;28;20227;-62
2024/02/22 04:33:43;;;;;;;1.40;1.30;;;8.40;99.90;;;-141.84;100.00;109366.66;5092665;28;20946;-62
2024/02/22 04:36:11;;;;;;;1.40;1.30;;;8.30;99.90;;;-141.84;100.00;109898.81;5092396;28;20303;-61
2024/02/22 04:38:44;;;;;;;1.60;1.50;;;8.40;99.90;;;-141.84;100.00;108568.56;5091689;28;20243;-61
2024/02/22 04:41:21;;;;;;;2.17;1.23;;;8.40;99.90;;;-141.84;100.00;112028.13;5067994;28;20230;-61
2024/02/22 04:43:50;;;;;;;1.20;1.10;;;8.30;99.90;;;-141.84;100.00;115224.16;5092196;28;20220;-62
2024/02/22 04:46:18;;;;;;;2.47;1.30;;;8.30;99.90;;;-141.84;100.00;113359.50;5091987;28;20227;-62
2024/02/22 04:48:46;;;;;;;1.93;1.10;;;8.30;99.90;;;-141.84;100.00;110697.16;5092500;28;20254;-62
2024/02/22 04:51:14;;;;;;;1.50;1.00;;;8.40;99.90;;;-141.84;100.00;109632.72;5090736;28;20277;-61
2024/02/22 04:53:43;;;;;;;1.57;1.33;;;8.40;99.90;;;-141.84;100.00;109898.81;5091922;28;20243;-62
2024/02/22 04:56:13;;;;;;;1.23;1.13;;;8.40;99.90;;;-141.84;100.00;108568.56;5091919;28;20285;-61
2024/02/22 04:58:41;;;;;;;1.77;1.30;;;8.40;99.90;;;-141.84;100.00;107238.72;5091912;28;20232;-61
2024/02/22 05:01:11;;;;;;;2.20;2.00;;;8.40;99.90;;;-141.84;100.00;110164.91;5083346;28;20211;-66
2024/02/22 05:03:41;;;;;;;1.57;1.23;;;8.30;99.90;;;-141.84;100.00;105377.72;5092515;28;20192;-61
2024/02/22 05:06:09;;;;;;;2.17;1.20;;;8.40;99.90;;;-141.84;100.00;103251.88;5091520;28;20226;-60
2024/02/22 05:08:37;;;;;;;2.70;1.30;;;8.50;99.90;;;-141.84;100.00;104048.94;5091824;28;20224;-61
2024/02/22 05:11:07;;;;;;;2.07;1.30;;;8.40;99.90;;;-141.84;100.00;109632.72;5091789;28;20688;-60
2024/02/22 05:13:36;;;;;;;1.20;1.10;;;8.40;99.90;;;-141.84;100.00;105111.94;5091420;28;20337;-61
2024/02/22 05:16:05;;;;;;;1.40;1.30;;;8.40;99.90;;;-141.84;100.00;106175.19;5092102;28;20196;-62
2024/02/22 05:18:35;;;;;;;1.20;1.10;;;8.40;99.90;;;-141.84;100.00;110164.91;5092225;28;20254;-62
2024/02/22 05:21:04;;;;;;;2.90;1.70;;;8.40;99.90;;;-141.84;100.00;113359.50;5092232;28;20710;-62
2024/02/22 05:23:33;;;;;;;1.70;1.60;;;8.30;99.90;;;-141.84;100.00;110697.16;5091657;28;20611;-62
2024/02/22 05:26:01;;;;;;;1.53;1.43;;;8.20;99.90;;;-141.84;100.00;109898.81;5091678;28;20311;-62
2024/02/22 05:28:29;;;;;;;1.93;1.63;;;8.40;99.90;;;-141.84;100.00;109632.72;5082910;28;20265;-62
2024/02/22 05:30:59;;;;;;;1.70;1.60;;;8.40;99.90;;;-141.84;100.00;106706.94;5091660;28;20195;-61
2024/02/22 05:33:27;;;;;;;2.13;1.70;;;8.40;99.90;;;-141.84;100.00;106972.81;5091396;28;20204;-61
2024/02/22 05:35:57;;;;;;;3.50;2.03;;;8.40;99.90;;;-141.84;100.00;109366.66;5091088;28;20621;-61
2024/02/22 05:38:25;;;;;;;1.73;1.63;;;8.40;99.90;;;-141.84;100.00;106972.81;5091145;28;20223;-61
2024/02/22 05:40:54;;;;;;;2.50;1.70;;;8.40;99.90;;;-141.84;100.00;109898.81;5090874;28;20230;-62
2024/02/22 05:43:22;;;;;;;1.80;1.70;;;8.40;99.90;;;-141.84;100.00;113892.16;5090820;28;20730;-61
2024/02/22 05:45:50;;;;;;;1.43;1.33;;;8.30;99.90;;;-141.84;100.00;116556.59;5091315;28;20245;-62
2024/02/22 05:48:18;;;;;;;2.23;1.87;;;8.30;99.90;;;-141.84;100.00;118156.06;5091036;28;20226;-61
2024/02/22 05:50:47;;;;;;;1.53;1.40;;;8.30;99.90;;;-141.84;100.00;118689.38;5090953;28;20302;-61
2024/02/22 05:53:18;;;;;;;2.90;1.73;;;8.30;99.90;;;-141.84;100.00;119224.81;5090698;28;20229;-61
2024/02/22 05:55:46;;;;;;;1.80;1.70;;;8.20;99.90;;;-141.84;100.00;119222.75;5090625;28;20231;-61
2024/02/22 05:58:16;;;;;;;1.80;1.70;;;8.20;99.90;;;-141.84;100.00;118956.03;5090724;28;20230;-60
2024/02/22 06:00:45;;;;;;;2.03;1.80;;;8.20;99.90;;;-141.84;100.00;118956.03;5092609;28;20212;-61
2024/02/22 06:03:14;;;;;;;2.97;2.00;;;8.30;99.90;;;-141.84;100.00;118422.72;5083754;28;20277;-62
2024/02/22 06:05:43;;;;;;;2.63;1.97;;;8.30;99.90;;;-141.84;100.00;117089.69;5093506;28;20228;-61
2024/02/22 06:08:12;;;;;;;4.03;1.70;;;8.30;99.90;;;-141.84;100.00;114957.72;5090527;28;20226;-61
2024/02/22 06:10:42;;;;;;;2.03;1.67;;;8.40;99.90;;;-141.84;100.00;115224.16;5091111;28;20649;-61
2024/02/22 06:13:10;;;;;;;1.63;1.50;;;8.30;99.90;;;-141.84;100.00;114957.72;5091953;28;20238;-61
2024/02/22 06:15:38;;;;;;;3.30;1.60;;;8.40;99.90;;;-141.84;100.00;116023.56;5089932;28;20257;-62
2024/02/22 06:18:07;;;;;;;2.43;1.80;;;8.30;99.90;;;-141.84;100.00;116023.56;5091500;28;20293;-62
2024/02/22 06:20:36;;;;;;;2.80;1.93;;;8.40;99.90;;;-141.84;100.00;117356.25;5092760;28;20404;-61
2024/02/22 06:23:05;;;;;;;1.63;1.50;;;8.30;99.90;;;-141.84;100.00;118422.72;5091936;28;20281;-62
2024/02/22 06:25:35;;;;;;;2.87;1.70;;;8.30;99.90;;;-141.84;100.00;118156.06;5090598;28;20758;-62
2024/02/22 06:28:06;;;;;;;2.07;1.83;;;8.30;99.90;;;-141.84;100.00;118956.03;5090446;28;20181;-62
2024/02/22 06:30:34;;;;;;;2.40;1.60;;;8.30;99.90;;;-141.84;100.00;119222.75;5091647;28;20292;-61
2024/02/22 06:33:02;;;;;;;2.00;1.77;;;8.30;99.90;;;-141.84;100.00;118422.72;5090716;28;20226;-62
2024/02/22 06:35:30;;;;;;;2.10;1.63;;;8.40;99.90;;;-141.84;100.00;117889.44;5090464;28;20219;-61
2024/02/22 06:37:59;;;;;;;1.60;1.50;;;8.40;99.90;;;-141.84;100.00;118956.03;5090647;28;20312;-62
2024/02/22 06:40:27;;;;;;;1.70;1.60;;;8.40;99.90;;;-141.84;100.00;119224.81;5090586;28;20236;-61
2024/02/22 06:42:56;;;;;;;1.60;1.50;;;8.30;99.90;;;-141.84;100.00;119224.81;5089863;28;20192;-61
2024/02/22 06:45:26;;;;;;;2.30;1.83;;;8.30;99.90;;;-141.84;100.00;119224.81;5091191;28;20256;-62
2024/02/22 06:47:54;;;;;;;2.50;1.87;;;8.30;99.90;;;-141.84;100.00;119224.81;5090204;28;20216;-62
2024/02/22 06:50:23;;;;;;;2.07;1.60;;;8.40;99.90;;;-141.84;100.00;119224.81;5089988;28;20235;-62
2024/02/22 06:52:51;;;;;;;3.53;2.20;;;8.40;99.90;;;-141.84;100.00;119224.81;5090015;28;20679;-62
2024/02/22 06:55:24;;;;;;;3.73;1.73;;;8.40;99.90;;;-141.84;100.00;119224.81;5089712;28;20658;-62
2024/02/22 06:57:53;;;;;;;1.67;1.50;;;8.50;99.90;;;-141.84;100.00;119224.81;5088918;28;20577;-61
2024/02/22 07:00:22;;;;;;;2.33;2.10;;;8.50;99.90;;;-141.84;100.00;119224.81;5091334;28;20245;-62
2024/02/22 07:02:50;;;;;;;3.77;2.00;;;8.50;99.90;;;-141.84;100.00;119224.81;5090832;28;20227;-62
2024/02/22 07:05:19;;;;;;;2.00;1.53;;;8.50;99.90;;;-141.84;100.00;119224.81;5089852;28;20265;-61
2024/02/22 07:07:47;;;;;;;2.90;1.80;;;8.50;99.90;;;-141.84;100.00;119224.81;5085425;28;20258;-61
2024/02/22 07:10:15;;;;;;;2.30;1.50;;;8.60;99.90;;;-141.84;100.00;119224.81;5089419;28;20239;-62
2024/02/22 07:12:44;;;;;;;2.33;1.70;;;8.60;99.90;;;-141.84;100.00;119224.81;5090304;28;20274;-61
2024/02/22 07:15:13;;;;;;;3.53;1.60;;;8.70;99.90;;;-141.84;100.00;119224.81;5093851;28;20232;-62
2024/02/22 07:17:41;;;;;;;2.90;1.90;;;8.70;99.90;;;-141.84;100.00;119224.81;5093785;28;20307;-61
2024/02/22 07:20:13;;;;;;;3.23;1.70;;;8.70;99.90;;;-141.84;100.00;119224.81;5094049;28;20215;-62
2024/02/22 07:22:44;;;;;;;2.73;1.33;;;8.70;99.90;;;-141.84;100.00;119224.81;5093806;28;20239;-62
2024/02/22 07:25:12;;;;;;;2.20;1.50;;;8.70;99.90;;;-141.84;100.00;119224.81;5093846;28;20703;-62
2024/02/22 07:27:41;;;;;;;2.43;1.90;;;8.70;99.90;;;-141.84;100.00;119224.81;5094534;28;20719;-63
2024/02/22 07:30:10;;;;;;;2.07;1.60;;;8.70;99.90;;;-141.84;100.00;119224.81;5093394;28;20235;-61
2024/02/22 07:32:38;;;;;;;3.40;1.80;;;8.70;99.90;;;-141.84;100.00;119224.81;5087817;28;20218;-62
2024/02/22 07:35:08;;;;;;;2.60;1.83;;;8.80;99.90;;;-141.84;100.00;119224.81;5093074;28;20594;-62
2024/02/22 07:37:39;;;;;;;2.43;1.67;;;8.70;99.90;;;-141.84;100.00;119224.81;5093435;28;20302;-62
2024/02/22 07:40:10;;;;;;;2.63;1.80;;;8.90;99.90;;;-141.84;100.00;119224.81;5093606;28;20196;-62
2024/02/22 07:42:40;;;;;;;3.40;1.70;;;8.90;99.90;;;-141.84;100.00;118956.03;5094031;28;20633;-62
2024/02/22 07:45:10;;;;;;;1.90;1.70;;;8.90;99.90;;;-141.84;100.00;118956.03;5093085;28;20232;-62
2024/02/22 07:47:39;;;;;;;1.87;1.50;;;8.90;99.90;;;-141.84;100.00;119222.75;5093258;28;20687;-62
2024/02/22 07:50:10;;;;;;;1.90;1.37;;;9.00;99.90;;;-141.84;100.00;119224.81;5093471;28;20224;-62
2024/02/22 07:52:44;;;;;;;1.73;1.20;;;8.90;99.90;;;-141.84;100.00;119222.75;5088587;28;20216;-63
2024/02/22 07:55:13;;;;;;;1.60;1.30;;;9.00;99.90;;;-141.84;100.00;119222.75;5097594;28;20306;-61
2024/02/22 07:57:45;;;;;;;1.70;1.10;;;9.00;99.90;;;-141.84;100.00;117356.25;5098584;28;20268;-61
2024/02/22 08:00:16;;;;;;;3.00;1.10;;;9.10;99.90;;;-141.84;100.00;117889.44;5056445;28;20248;-62
2024/02/22 08:02:45;;;;;;;1.03;1.00;;;9.10;99.90;;;-141.84;100.00;117889.44;5095516;28;20252;-62
2024/02/22 08:05:17;;;;;;;1.40;1.30;;;9.20;99.90;;;-141.84;100.00;117089.69;5088777;28;20227;-63
2024/02/22 08:07:47;;;;;;;1.63;1.30;;;9.20;99.90;;;-141.84;100.00;116023.56;5058592;28;20309;-62
2024/02/22 08:10:17;;;;;;;1.47;1.17;;;9.40;99.90;;;-141.84;100.00;114691.31;5076765;28;20232;-62
2024/02/22 08:12:50;;;;;;;1.33;1.17;;;9.50;99.90;;;-141.84;100.00;114424.91;5077344;28;20197;-62
2024/02/22 08:15:23;;;;;;;1.40;1.30;;;9.60;99.90;;;-141.84;100.00;115490.59;5077336;28;20229;-60
2024/02/22 08:17:51;;;;;;;1.27;1.17;;;9.70;99.90;;;-141.84;100.00;116290.06;5069307;28;20738;-61
2024/02/22 08:20:24;;;;;;;1.53;1.20;;;9.70;99.90;;;-141.84;100.00;107770.63;5076371;28;20270;-61
2024/02/22 08:22:54;;;;;;;1.70;1.00;;;9.80;99.90;;;-141.84;100.00;106706.94;5076762;28;20899;-62
2024/02/22 08:25:25;;;;;;;1.50;1.30;;;9.80;99.90;;;-141.84;100.00;103251.88;5075257;28;20246;-63
2024/02/22 08:27:56;;;;;;;1.27;1.10;;;9.90;99.90;;;-141.84;98.93;100065.22;5076116;28;20243;-62
2024/02/22 08:30:35;;;;;;;1.10;1.00;;;9.80;99.90;;;-141.84;98.13;98738.19;5068754;28;20216;-62
2024/02/22 08:33:06;;;;;;;1.23;1.13;;;9.80;99.90;;;-141.84;97.56;97411.59;5076456;28;20224;-62
2024/02/22 08:35:34;;;;;;;1.10;1.00;;;9.90;99.90;;;-141.84;97.17;96350.63;5076205;28;20224;-62
2024/02/22 08:38:07;;;;;;;3.30;1.20;;;10.00;99.90;;;-141.84;94.02;87608.25;5076993;28;20280;-62
2024/02/22 08:40:35;;;;;;;1.17;1.00;;;10.10;99.90;;;-141.84;94.65;89990.66;5076833;28;20235;-63
2024/02/22 08:43:09;;;;;;;1.10;1.00;;;10.10;99.90;;;-141.84;92.12;82847.66;5068734;28;20560;-62
2024/02/22 08:45:38;;;;;;;1.00;0.90;;;10.20;99.90;;;-141.84;90.88;78356.72;5076972;28;20204;-62
2024/02/22 08:48:11;;;;;;;1.40;1.20;;;10.20;99.90;;;-141.84;91.02;79148.88;5076059;28;20707;-61
2024/02/22 08:50:44;;;;;;;1.00;0.97;;;10.30;99.90;;;-141.84;89.61;74925.88;5076253;28;20703;-63
2024/02/22 08:53:14;;;;;;;1.67;1.30;;;10.30;99.90;;;-141.84;87.27;62809.50;5076519;28;20236;-62
2024/02/22 08:55:45;;;;;;;2.93;1.13;;;10.40;99.90;;;-141.84;86.98;62020.59;5068622;28;20213;-62
2024/02/22 08:58:13;;;;;;;1.97;1.33;;;10.40;99.90;;;-141.84;83.47;39802.31;5076490;28;20311;-62
2024/02/22 09:00:45;;;;;;;1.77;1.27;;;10.60;99.90;;;-141.84;83.63;42348.44;5076922;28;20256;-62
2024/02/22 09:03:13;;;;;;;1.20;1.10;;;10.60;99.90;;;-141.84;82.19;31978.16;5076162;28;20562;-62
2024/02/22 09:05:45;;;;;;;1.43;1.13;;;10.70;99.90;;;-141.84;79.98;22318.50;5076242;28;20231;-62
2024/02/22 09:08:16;;;;;;;1.43;0.93;;;10.80;99.90;;;-141.84;82.00;28868.34;5087083;28;20224;-62
2024/02/22 09:10:47;;;;;;;1.30;0.90;;;10.80;99.90;;;-141.84;82.89;34702.81;5097031;28;20238;-60
2024/02/22 09:13:16;;;;;;;1.13;0.83;;;10.90;99.90;;;-141.84;78.83;20948.06;5096283;28;20224;-61
2024/02/22 09:15:49;;;;;;;1.90;1.00;;;11.00;99.90;;;-141.84;78.18;20143.09;5097484;28;20200;-61
2024/02/22 09:18:20;;;;;;;0.90;0.80;;;11.00;99.90;;;-141.84;78.47;20279.28;5096446;28;20220;-60
2024/02/22 09:20:52;;;;;;;1.50;1.00;;;11.00;99.90;;;-141.84;77.16;19517.13;5077916;28;20695;-60
2024/02/22 09:23:25;;;;;;;1.37;1.00;;;11.10;99.90;;;-141.84;76.05;18978.63;5095888;28;20219;-60
2024/02/22 09:25:53;;;;;;;0.90;0.80;;;11.20;99.90;;;-141.84;76.47;19045.69;5095807;28;20259;-60
2024/02/22 09:28:24;;;;;;;1.23;0.90;;;11.20;99.90;;;-141.84;76.12;19106.66;5096349;28;20231;-60
2024/02/22 09:30:53;;;;;;;0.70;0.70;;;11.40;99.90;;;-141.84;74.52;18828.28;5096105;28;20230;-60
2024/02/22 09:33:24;;;;;;;1.30;1.00;;;11.50;99.90;;;-141.84;74.06;18706.38;5096457;28;20250;-61
2024/02/22 09:35:53;;;;;;;0.80;0.80;;;11.60;99.90;;;-141.84;74.50;18720.59;5096237;28;20212;-61
2024/02/22 09:38:27;;;;;;;0.70;0.63;;;11.50;99.90;;;-141.84;74.57;18757.16;5096984;28;20222;-61
2024/02/22 09:40:55;;;;;;;0.70;0.70;;;11.60;99.90;;;-141.84;73.21;18637.28;5088312;28;20298;-63
2024/02/22 09:43:25;;;;;;;1.20;1.10;;;11.60;99.90;;;-141.84;72.80;18655.56;5096349;28;20234;-62
2024/02/22 09:45:53;;;;;;;0.80;0.80;;;11.70;99.90;;;-141.84;72.67;18621.03;5095115;28;20888;-62
2024/02/22 09:48:25;;;;;;;2.50;0.80;;;11.90;99.90;;;-141.84;70.20;18493.03;5096351;28;20219;-61
2024/02/22 09:50:56;;;;;;;0.77;0.70;;;11.90;99.90;;;-141.84;69.25;18501.16;5043632;28;20325;-61
2024/02/22 09:53:28;;;;;;;0.93;0.70;;;12.00;99.90;;;-141.84;69.62;18517.41;5096165;28;20220;-61
2024/02/22 09:55:57;;;;;;;0.93;0.70;;;12.10;99.90;;;-141.84;70.32;18537.72;5095525;28;20369;-61
2024/02/22 09:58:29;;;;;;;0.70;0.70;;;12.10;99.90;;;-141.84;69.69;18517.41;5094462;28;20228;-62
2024/02/22 10:00:57;;;;;;;1.60;0.70;;;12.20;99.90;;;-141.84;69.12;18525.53;5095664;28;20192;-62
2024/02/22 10:03:31;;;;;;;0.70;0.70;;;12.30;99.90;;;-141.84;67.56;18519.44;5095640;28;20302;-62
2024/02/22 10:06:04;;;;;;;1.48;0.70;;;12.50;99.90;;;-141.84;63.35;18537.72;5094973;28;20248;-60
2024/02/22 10:08:34;;;;;;;0.95;0.60;;;12.90;99.90;;;-141.84;63.24;18549.91;5095430;28;20231;-62
2024/02/22 10:11:07;;;;;;;0.70;0.63;;;13.20;99.90;;;-141.84;61.86;18592.59;5095452;28;20250;-62
2024/02/22 10:13:36;;;;;;;0.85;0.60;;;13.40;99.90;;;-141.84;59.06;18604.78;5095117;28;20774;-61